• Join FlightAware (Why Join?)
  • Login
  • US Flag 
07:48AM EDT


 

Airport Tracker/Info


-or-


 

Live Flight TrackerFlight Track Log ✈ EJA982 ✈ 21-Jul-2013 ✈ KLAS - KSJC

Flight Track Log - Related Links

Times and Time Zones

All times are in EDT time to prevent confusion due to time zone crossing. See the EJA982 flight status page for this flight to view local times or setup timezone preferences in your user account.

Time Position Orientation Groundspeed Altitude Reporting Facility
EDT Latitude Longitude Course Direction KTS MPH feet Rate Location/Type
02:55PM 36.0761 -115.1283 90° East 163 188 3,400  Level Los Angeles Center
02:56PM 36.0758 -115.0258 90° East 218 251 7,900 3,480 Climbing Los Angeles Center
02:57PM 36.0489 -114.9383 111° Southeast 284 327 11,600 3,840 Climbing Los Angeles Center
02:58PM 35.9556 -114.9236 173° South 320 368 16,100 3,480 Climbing Los Angeles Center
02:59PM 35.9167 -115.0094 241° Southwest 344 396 18,900 1,680 Climbing Los Angeles Center
03:00PM 35.9158 -115.1461 270° West 394 453 19,500 960 Climbing Los Angeles Center
03:01PM 35.9150 -115.2967 270° West 422 486 21,000 1,380 Climbing Los Angeles Center
03:02PM 35.9611 -115.4711 288° West 443 510 22,400 1,200 Climbing Los Angeles Center
03:03PM 36.0017 -115.6189 289° West 461 531 23,600 1,260 Climbing Los Angeles Center
03:04PM 36.0436 -115.7708 289° West 452 520 25,100 1,560 Climbing Los Angeles Center
03:05PM 36.0822 -115.9061 289° West 454 522 26,900 1,740 Climbing Los Angeles Center
03:06PM 36.1294 -116.0803 289° West 446 513 28,800 1,440 Climbing Los Angeles Center
03:07PM 36.1719 -116.2322 289° West 459 528 29,900 540 Climbing Los Angeles Center
03:08PM 36.2133 -116.3850 289° West 467 537 30,000  Climbing Los Angeles Center
03:09PM 36.2567 -116.5469 288° West 483 556 30,000  Level Los Angeles Center
03:10PM 36.3011 -116.7139 288° West 496 571 30,000  Level Los Angeles Center
03:12PM 36.3478 -116.8839 289° West 508 585 30,000  Level Los Angeles Center
03:13PM 36.3933 -117.0550 288° West 515 593 30,000  Level Los Angeles Center
03:14PM 36.4478 -117.2617 288° West 523 602 30,000  Level Los Angeles Center
03:15PM 36.4828 -117.3956 288° West 519 597 30,000  Level Los Angeles Center
03:16PM 36.5350 -117.5989 288° West 518 596 30,000  Level Los Angeles Center
03:17PM 36.5783 -117.7669 288° West 517 595 30,000  Level Los Angeles Center
03:18PM 36.6225 -117.9378 288° West 517 595 30,000  Level Los Angeles Center
03:19PM 36.6739 -118.1408 288° West 516 594 30,000  Level Los Angeles Center
03:20PM 36.7175 -118.3111 288° West 518 596 30,000  Level Los Angeles Center
03:21PM 36.7606 -118.4817 288° West 518 596 30,000  Level Los Angeles Center
03:22PM 36.8069 -118.6694 287° West 519 597 30,000  Level Los Angeles Center
03:23PM 36.8492 -118.8406 287° West 518 596 30,000 -480 Level Los Angeles Center
03:24PM 36.8911 -119.0183 286° West 522 601 29,000 -1,080 Descending Oakland Center
03:25PM 36.9339 -119.1928 287° West 528 608 27,800 -1,080 Descending Oakland Center
03:26PM 36.9753 -119.3642 287° West 520 598 26,800 -1,200 Descending Oakland Center
03:27PM 37.0247 -119.5681 287° West 514 592 25,400 -1,260 Descending Oakland Center
03:28PM 37.0639 -119.7367 286° West 508 585 24,300 -900 Descending Oakland Center
03:29PM 37.1033 -119.8975 287° West 499 574 23,600 -960 Descending Oakland Center
03:30PM 37.1425 -120.0611 287° West 493 567 22,400 -1,320 Descending Oakland Center
03:31PM 37.1803 -120.2269 286° West 494 568 20,900 -1,500 Descending Oakland Center
03:32PM 37.2153 -120.3881 285° West 484 557 19,400 -1,620 Descending Oakland Center
03:33PM 37.1828 -120.5800 258° West 475 547 17,600 -1,500 Descending Oakland Center
03:34PM 37.1467 -120.7403 254° West 468 539 16,300 -1,440 Descending Oakland Center
03:35PM 37.1167 -120.9167 258° West 438 504 14,500 -1,500 Descending Northern Cal TRACON
03:36PM 37.0997 -121.0322 260° West 434 499 13,300 -1,500 Descending Oakland Center
03:37PM 37.0831 -121.1931 263° West 436 502 11,700 -1,380 Descending Oakland Center
03:38PM 37.0681 -121.3361 263° West 422 486 10,500 -960 Descending Oakland Center
03:39PM 37.0575 -121.4481 263° West 338 389 9,800 -1,320 Descending Oakland Center
03:40PM 37.0461 -121.5539 262° West 313 360 7,900 -1,800 Descending Oakland Center
03:41PM 37.0881 -121.6325 304° West 291 335 6,100 -1,380 Descending Oakland Center
03:42PM 37.1500 -121.7000 319° Northwest 273 314 5,100 -1,200 Descending Northern Cal TRACON
03:43PM 37.2167 -121.7667 321° Northwest 280 322 3,700 -1,440 Descending Northern Cal TRACON
03:45PM 37.2714 -121.8336 316° Northwest 272 313 2,200 -1,140 Descending Oakland Center
03:46PM 37.3194 -121.8839 320° Northwest 244 281 1,400 -1,020 Descending Oakland Center
03:47PM 37.3517 -121.9203 318° Northwest 187 215 100 -1,260 Descending Oakland Center
03:49PM 37.3500 -121.9167 North  Level FlightAware Approximate